首页
METAR-TAF:

METAR-TAF

机场 :

庫里奇巴, 巴拉那州, 巴西

纬度: 25-26S, 经度: 049-16W, 海拔: 924米

当前天气观测

该预报发布于1小时和7分钟前的10:00 UTC
静风
温度 8°C
湿度 100%
气压 1027 hPa
能見度: 8000
浅雾,

METAR: SBBI 231000Z 00000KT 8000 MIFG NSC 08/08 Q1027

时间: 08:07 (11:07 UTC)

预报

该预报发布于8小时和7分钟前的03:00 UTC
预报有效从23日的 06点(UTC)到 23日的 18点(UTC)
风速4节,风向东南
能见度10公里或以上
1500米以下无云,无积雨云
几率 40% :
短暂存在
从 23日的 06点(UTC)到 23日的 11点(UTC)
能見度: 0800

TAF: SBBI 230300Z 2306/2318 13004KT CAVOK TN10/2309Z TX24/2317Z PROB40 TEMPO 2306/2311 0800 FG NSC RMK PCQ

超过4000个机场的气象观测和天气预报(METAR&TAF报告)。

可查询的气象台以黄色和红色小点在地图上表示。

将鼠标移到小点上方,可查看气象台名称。

然后点击查看天气观测和预报。

如需切换地图:点击带黑十字的绿色按钮放大地图;点击带横线的绿色按钮缩小地图;或者点击绿色箭头查看邻近地区的地图。


METAR-TAF: